Time;durP1;ratioP1;P1;durP2;ratioP2;P2;SDS_P1;SDS_P2;PMS_P1;PMS_P2;Temp;Humidity;BMP_temperature;BMP_pressure;BME280_temperature;BME280_humidity;BME280_pressure;Samples;Min_cycle;Max_cycle;Signal;HPM_P1;HPM_P2
2022/07/16 00:01:48;;;;;;;3.63;1.87;;;15.60;80.80;;;;;;5053386;28;20277;-67
2022/07/16 00:04:15;;;;;;;4.07;2.00;;;15.60;81.10;;;;;;5053618;28;20213;-67
2022/07/16 00:06:44;;;;;;;4.60;1.77;;;15.50;81.90;;;;;;5053990;28;20205;-67
2022/07/16 00:09:11;;;;;;;7.83;2.10;;;15.50;81.20;;;;;;5049236;28;20206;-67
2022/07/16 00:11:38;;;;;;;4.50;1.50;;;15.50;81.20;;;;;;5049169;28;20677;-67
2022/07/16 00:14:05;;;;;;;2.73;2.20;;;15.50;81.30;;;;;;5052958;28;20213;-67
2022/07/16 00:16:31;;;;;;;5.33;1.90;;;15.50;81.40;;;;;;5053528;28;20210;-67
2022/07/16 00:21:57;;;;;;;2.67;1.80;;;15.50;81.40;;;;;;5002362;28;20707;-67
2022/07/16 00:24:24;;;;;;;6.13;2.47;;;15.40;81.30;;;;;;5042893;28;20220;-67
2022/07/16 00:26:51;;;;;;;4.03;2.10;;;15.50;81.50;;;;;;5052296;28;20237;-67
2022/07/16 00:29:18;;;;;;;3.17;1.40;;;15.40;81.40;;;;;;5054509;28;20205;-66
2022/07/16 00:31:45;;;;;;;4.80;1.70;;;15.40;81.60;;;;;;5056930;28;20775;-68
2022/07/16 00:34:12;;;;;;;5.07;1.73;;;15.50;81.70;;;;;;5056735;28;20209;-68
2022/07/16 00:36:40;;;;;;;6.10;2.03;;;15.50;81.60;;;;;;5042788;28;20210;-67
2022/07/16 00:39:10;;;;;;;3.93;1.60;;;15.50;81.40;;;;;;5056953;28;20202;-67
2022/07/16 00:41:38;;;;;;;6.53;2.10;;;15.50;81.30;;;;;;5056190;28;20210;-66
2022/07/16 00:44:07;;;;;;;5.17;1.50;;;15.50;81.40;;;;;;5049694;28;20584;-66
2022/07/16 00:46:34;;;;;;;3.53;1.90;;;15.50;81.40;;;;;;5039561;28;20241;-67
2022/07/16 00:49:02;;;;;;;3.63;1.77;;;15.50;81.50;;;;;;5043818;28;20289;-67
2022/07/16 00:51:29;;;;;;;3.07;1.70;;;15.50;81.50;;;;;;5056430;28;20214;-67
2022/07/16 00:53:57;;;;;;;3.47;1.67;;;15.50;81.50;;;;;;5056557;28;20217;-66
2022/07/16 00:56:25;;;;;;;5.17;1.80;;;15.50;81.50;;;;;;5057143;28;20202;-67
2022/07/16 00:58:54;;;;;;;2.97;1.80;;;15.50;81.50;;;;;;5053999;28;20219;-66
2022/07/16 01:01:21;;;;;;;5.00;1.90;;;15.50;81.50;;;;;;5046348;28;20213;-66
2022/07/16 01:03:48;;;;;;;4.53;1.53;;;15.60;81.50;;;;;;5057521;28;20229;-66
2022/07/16 01:06:16;;;;;;;3.10;1.60;;;15.60;81.50;;;;;;5057863;28;20205;-67
2022/07/16 01:08:45;;;;;;;3.70;1.57;;;15.50;81.30;;;;;;5044089;28;20224;-67
2022/07/16 01:11:14;;;;;;;2.87;1.77;;;15.50;81.20;;;;;;5057570;28;20209;-66
2022/07/16 01:13:44;;;;;;;2.50;1.60;;;15.50;81.30;;;;;;5057555;28;20222;-67
2022/07/16 01:16:12;;;;;;;4.93;1.90;;;15.50;81.30;;;;;;5050830;28;20213;-66
2022/07/16 01:18:40;;;;;;;4.07;1.50;;;15.50;81.40;;;;;;5048879;28;20212;-66
2022/07/16 01:21:07;;;;;;;3.50;1.87;;;15.50;81.50;;;;;;5043033;28;20202;-66
2022/07/16 01:23:35;;;;;;;5.07;1.60;;;15.50;81.60;;;;;;5057938;28;20580;-66
2022/07/16 01:26:02;;;;;;;2.40;1.83;;;15.50;81.80;;;;;;5058225;28;20233;-66
2022/07/16 01:28:30;;;;;;;3.37;1.37;;;15.50;81.70;;;;;;5057806;28;20217;-66
2022/07/16 01:30:56;;;;;;;5.13;1.70;;;15.50;81.90;;;;;;5057586;28;20679;-66
2022/07/16 01:33:25;;;;;;;4.27;1.90;;;15.50;81.80;;;;;;5056478;28;20218;-66
2022/07/16 01:35:54;;;;;;;7.43;1.97;;;15.50;81.90;;;;;;5056261;28;20400;-67
2022/07/16 01:38:21;;;;;;;3.90;1.50;;;15.40;82.00;;;;;;5057350;28;20570;-66
2022/07/16 01:40:49;;;;;;;3.67;2.03;;;15.50;82.10;;;;;;5055841;28;20210;-66
2022/07/16 01:43:18;;;;;;;5.03;1.90;;;15.50;82.10;;;;;;5056517;28;20202;-66
2022/07/16 01:45:45;;;;;;;3.10;1.63;;;15.50;82.20;;;;;;5056777;28;20521;-67
2022/07/16 01:48:13;;;;;;;3.43;1.90;;;15.50;82.30;;;;;;5056672;28;20237;-67
2022/07/16 01:50:42;;;;;;;4.53;1.77;;;15.50;82.20;;;;;;5055903;28;20312;-66
2022/07/16 01:53:09;;;;;;;2.40;1.60;;;15.50;82.30;;;;;;5056267;28;20245;-66
2022/07/16 01:55:36;;;;;;;2.57;1.50;;;15.50;82.50;;;;;;5056585;28;20216;-67
2022/07/16 01:58:05;;;;;;;7.27;2.03;;;15.50;82.50;;;;;;5056732;28;20214;-67
2022/07/16 02:00:32;;;;;;;3.03;1.80;;;15.50;82.50;;;;;;5056139;28;20220;-67
2022/07/16 02:02:59;;;;;;;3.00;1.57;;;15.50;82.50;;;;;;5056308;28;20570;-67
2022/07/16 02:05:26;;;;;;;4.83;1.70;;;15.60;82.60;;;;;;5042392;28;20202;-67
2022/07/16 02:07:53;;;;;;;3.10;1.57;;;15.50;82.60;;;;;;5055477;28;20198;-66
2022/07/16 02:10:20;;;;;;;3.33;1.93;;;15.60;82.80;;;;;;5057121;28;20603;-67
2022/07/16 02:12:47;;;;;;;4.07;2.13;;;15.60;82.80;;;;;;5056394;28;20225;-66
2022/07/16 02:15:15;;;;;;;2.93;2.10;;;15.50;82.80;;;;;;5056725;28;20209;-66
2022/07/16 02:17:42;;;;;;;3.93;1.60;;;15.50;82.90;;;;;;5052275;28;20203;-67
2022/07/16 02:20:11;;;;;;;4.13;1.60;;;15.50;83.10;;;;;;5046301;28;20206;-67
2022/07/16 02:22:38;;;;;;;3.23;1.80;;;15.50;83.10;;;;;;5055643;28;20283;-66
2022/07/16 02:25:06;;;;;;;5.07;1.90;;;15.50;83.20;;;;;;5055142;28;20693;-67
2022/07/16 02:27:33;;;;;;;6.20;2.03;;;15.50;83.30;;;;;;5056243;28;20586;-67
2022/07/16 02:30:00;;;;;;;3.07;1.70;;;15.50;83.30;;;;;;5049408;28;20206;-66
2022/07/16 02:32:28;;;;;;;5.17;2.10;;;15.50;83.40;;;;;;5050087;28;20458;-66
2022/07/16 02:34:55;;;;;;;4.17;1.93;;;15.50;83.60;;;;;;5054670;28;20233;-66
2022/07/16 02:37:22;;;;;;;3.43;1.80;;;15.50;83.90;;;;;;5043916;28;20194;-66
2022/07/16 02:39:49;;;;;;;3.30;2.00;;;15.40;83.80;;;;;;5042548;28;20234;-67
2022/07/16 02:42:16;;;;;;;3.27;1.80;;;15.40;83.90;;;;;;5054992;28;20210;-65
2022/07/16 02:44:42;;;;;;;4.77;1.70;;;15.40;84.10;;;;;;5055562;28;20232;-66
2022/07/16 02:47:09;;;;;;;3.37;1.63;;;15.40;84.20;;;;;;5055860;28;20234;-66
2022/07/16 02:49:37;;;;;;;3.13;1.53;;;15.40;84.20;;;;;;5044948;28;20214;-66
2022/07/16 02:52:04;;;;;;;3.77;1.50;;;15.40;84.30;;;;;;5052246;28;20213;-67
2022/07/16 02:54:31;;;;;;;1.90;1.50;;;15.40;84.30;;;;;;5055330;28;20249;-66
2022/07/16 02:56:58;;;;;;;4.23;1.57;;;15.30;84.20;;;;;;5054438;28;20218;-67
2022/07/16 02:59:24;;;;;;;2.80;1.70;;;15.30;84.40;;;;;;5054127;28;20214;-67
2022/07/16 03:01:51;;;;;;;3.47;1.53;;;15.30;84.50;;;;;;5055715;28;20210;-66
2022/07/16 03:04:18;;;;;;;4.73;2.03;;;15.30;84.50;;;;;;5055613;28;20662;-66
2022/07/16 03:06:46;;;;;;;2.47;1.57;;;15.30;84.60;;;;;;5055619;28;20213;-67
2022/07/16 03:09:13;;;;;;;4.37;2.03;;;15.30;84.60;;;;;;5054981;28;20309;-67
2022/07/16 03:11:40;;;;;;;3.47;1.73;;;15.20;84.60;;;;;;5054609;28;20278;-66
2022/07/16 03:14:07;;;;;;;5.13;1.67;;;15.20;84.70;;;;;;5041467;28;20226;-67
2022/07/16 03:16:33;;;;;;;4.00;1.70;;;15.20;84.80;;;;;;5046256;28;20685;-66
2022/07/16 03:19:00;;;;;;;3.00;1.60;;;15.20;85.00;;;;;;5049328;28;20216;-67
2022/07/16 03:21:27;;;;;;;4.90;1.70;;;15.20;85.20;;;;;;5046149;28;20216;-66
2022/07/16 03:23:55;;;;;;;2.43;1.90;;;15.20;85.30;;;;;;5053885;28;20206;-66
2022/07/16 03:26:22;;;;;;;4.40;1.60;;;15.20;85.00;;;;;;5034159;28;20230;-66
2022/07/16 03:28:48;;;;;;;3.30;1.83;;;15.30;85.10;;;;;;5034001;28;20674;-66
2022/07/16 03:31:17;;;;;;;2.77;1.70;;;15.30;85.10;;;;;;5051208;28;20209;-66
2022/07/16 03:33:43;;;;;;;4.50;1.40;;;15.30;85.10;;;;;;5052232;28;20225;-65
2022/07/16 03:36:10;;;;;;;4.20;1.80;;;15.30;85.10;;;;;;5053918;28;20293;-65
2022/07/16 03:41:23;;;;;;;2.87;1.80;;;15.30;85.10;;;;;;5053661;28;20807;-66
2022/07/16 03:43:50;;;;;;;4.47;1.47;;;15.30;85.10;;;;;;5047764;28;20226;-65
2022/07/16 03:46:17;;;;;;;3.33;1.50;;;15.30;85.10;;;;;;5044643;28;20210;-66
2022/07/16 03:48:44;;;;;;;2.70;1.60;;;15.30;85.00;;;;;;5053557;28;20201;-66
2022/07/16 03:51:11;;;;;;;3.77;1.20;;;15.30;85.10;;;;;;5052189;28;20206;-65
2022/07/16 03:53:39;;;;;;;4.27;1.60;;;15.30;85.20;;;;;;5053504;28;20226;-65
2022/07/16 03:56:07;;;;;;;4.57;1.77;;;15.30;85.20;;;;;;5053596;28;20202;-66
2022/07/16 03:58:35;;;;;;;5.80;1.40;;;15.40;85.10;;;;;;5052844;28;20214;-66
2022/07/16 04:01:02;;;;;;;5.80;1.60;;;15.40;85.10;;;;;;5053156;28;20225;-66
2022/07/16 04:03:29;;;;;;;7.03;1.57;;;15.40;85.00;;;;;;5052466;28;20205;-66
2022/07/16 04:05:56;;;;;;;4.93;1.90;;;15.40;84.90;;;;;;5052219;28;20198;-66
2022/07/16 04:08:23;;;;;;;4.73;1.33;;;15.40;84.80;;;;;;5041365;28;20222;-66
2022/07/16 04:10:49;;;;;;;3.40;1.30;;;15.40;84.80;;;;;;5050712;28;20662;-65
2022/07/16 04:13:16;;;;;;;4.57;1.43;;;15.50;84.90;;;;;;5053117;28;20593;-66
2022/07/16 04:15:44;;;;;;;4.53;2.07;;;15.50;84.80;;;;;;5052889;28;20210;-66
2022/07/16 04:18:11;;;;;;;2.90;1.50;;;15.50;84.90;;;;;;5045058;28;20206;-66
2022/07/16 04:20:38;;;;;;;11.70;1.80;;;15.50;84.90;;;;;;5046488;28;20569;-65
2022/07/16 04:23:05;;;;;;;3.80;1.30;;;15.50;84.80;;;;;;5052940;28;20206;-66
2022/07/16 04:25:32;;;;;;;2.03;1.20;;;15.60;84.90;;;;;;5053011;28;20237;-65
2022/07/16 04:27:59;;;;;;;4.23;1.63;;;15.60;84.90;;;;;;5052976;28;20214;-66
2022/07/16 04:30:26;;;;;;;5.97;1.80;;;15.60;84.80;;;;;;5052801;28;20221;-65
2022/07/16 04:32:54;;;;;;;7.17;1.80;;;15.60;84.90;;;;;;5052871;28;20205;-66
2022/07/16 04:35:21;;;;;;;2.97;1.40;;;15.70;85.00;;;;;;5052851;28;20206;-67
2022/07/16 04:37:47;;;;;;;3.37;1.60;;;15.70;85.00;;;;;;5051568;28;20205;-66
2022/07/16 04:40:15;;;;;;;4.23;1.70;;;15.70;84.90;;;;;;5052946;28;20589;-65
2022/07/16 04:42:45;;;;;;;2.57;1.70;;;15.80;85.00;;;;;;5053167;28;20237;-65
2022/07/16 04:45:13;;;;;;;4.13;1.83;;;15.80;85.10;;;;;;5053015;28;20206;-66
2022/07/16 04:47:40;;;;;;;3.97;1.87;;;15.90;85.10;;;;;;5052316;28;20709;-66
2022/07/16 04:50:09;;;;;;;5.40;1.80;;;15.90;85.10;;;;;;5052387;28;20590;-66
2022/07/16 04:52:36;;;;;;;4.57;1.50;;;15.90;84.80;;;;;;5051872;28;20198;-67
2022/07/16 04:55:04;;;;;;;6.63;1.60;;;16.00;85.00;;;;;;5052963;28;20303;-66
2022/07/16 04:57:31;;;;;;;2.67;1.77;;;16.10;84.90;;;;;;5052960;28;20307;-67
2022/07/16 04:59:57;;;;;;;2.87;1.57;;;16.10;84.90;;;;;;5053079;28;20548;-66
2022/07/16 05:05:10;;;;;;;4.17;1.60;;;16.10;84.90;;;;;;5052546;28;20197;-66
2022/07/16 05:07:37;;;;;;;4.70;1.57;;;16.10;84.70;;;;;;5052597;28;20206;-66
2022/07/16 05:10:05;;;;;;;3.37;1.70;;;16.10;84.80;;;;;;5040647;28;20238;-66
2022/07/16 05:12:31;;;;;;;3.50;2.10;;;16.20;84.70;;;;;;5049565;28;20206;-66
2022/07/16 05:14:58;;;;;;;3.35;1.45;;;16.20;84.60;;;;;;5044199;28;20222;-66
2022/07/16 05:17:25;;;;;;;5.23;1.67;;;16.30;84.80;;;;;;5050596;28;20543;-65
2022/07/16 05:19:51;;;;;;;3.80;1.42;;;16.30;84.80;;;;;;5041661;28;20214;-66
2022/07/16 05:22:20;;;;;;;5.13;1.80;;;16.40;84.60;;;;;;5050289;28;20757;-66
2022/07/16 05:24:46;;;;;;;4.03;1.70;;;16.40;84.80;;;;;;5053087;28;20589;-66
2022/07/16 05:27:13;;;;;;;4.50;1.70;;;16.40;84.80;;;;;;5048805;28;20220;-65
2022/07/16 05:29:40;;;;;;;3.03;1.67;;;16.40;84.50;;;;;;5055653;28;20214;-66
2022/07/16 05:32:07;;;;;;;3.13;1.50;;;16.50;84.70;;;;;;5055727;28;20214;-67
2022/07/16 05:34:33;;;;;;;3.92;1.38;;;16.50;84.60;;;;;;5054958;28;20248;-65
2022/07/16 05:37:00;;;;;;;4.50;1.67;;;16.50;84.40;;;;;;5055502;28;20206;-66
2022/07/16 05:39:29;;;;;;;5.15;1.50;;;16.60;84.50;;;;;;5055748;28;20210;-66
2022/07/16 05:41:56;;;;;;;6.13;1.63;;;16.60;84.60;;;;;;5055837;28;20248;-66
2022/07/16 05:44:23;;;;;;;7.10;1.80;;;16.70;84.70;;;;;;5056781;28;20213;-67
2022/07/16 05:46:50;;;;;;;3.97;1.70;;;16.70;84.80;;;;;;5042542;28;20659;-66
2022/07/16 05:49:17;;;;;;;3.22;1.80;;;16.80;84.80;;;;;;5056841;28;20221;-66
2022/07/16 05:51:44;;;;;;;4.50;1.53;;;16.80;84.60;;;;;;5056291;28;20212;-67
2022/07/16 05:54:10;;;;;;;5.70;1.80;;;16.90;84.60;;;;;;5055931;28;20241;-67
2022/07/16 05:56:38;;;;;;;4.45;1.38;;;16.90;84.60;;;;;;5056408;28;20210;-67
2022/07/16 05:59:05;;;;;;;2.20;1.77;;;16.90;84.50;;;;;;5056459;28;20206;-66
2022/07/16 06:01:33;;;;;;;4.13;1.50;;;16.90;84.30;;;;;;5055404;28;20209;-66
2022/07/16 06:04:00;;;;;;;5.03;1.75;;;16.90;84.50;;;;;;5042232;28;20206;-67
2022/07/16 06:06:27;;;;;;;4.30;1.70;;;16.90;84.40;;;;;;5056610;28;20568;-67
2022/07/16 06:08:53;;;;;;;6.70;1.67;;;17.00;84.60;;;;;;5055810;28;20614;-66
2022/07/16 06:11:20;;;;;;;5.82;1.65;;;17.00;84.60;;;;;;5055859;28;20217;-66
2022/07/16 06:13:48;;;;;;;5.57;1.77;;;17.10;84.40;;;;;;5055251;28;20685;-66
2022/07/16 06:16:15;;;;;;;6.75;2.05;;;17.10;84.30;;;;;;5055984;28;20565;-67
2022/07/16 06:18:42;;;;;;;5.93;1.70;;;17.20;84.40;;;;;;5043029;28;20212;-67
2022/07/16 06:21:09;;;;;;;2.72;1.80;;;17.20;84.30;;;;;;5045999;28;20209;-67
2022/07/16 06:23:36;;;;;;;3.42;1.50;;;17.30;84.10;;;;;;5056660;28;20209;-66
2022/07/16 06:26:03;;;;;;;4.60;1.77;;;17.40;84.00;;;;;;5055332;28;20597;-67
2022/07/16 06:28:30;;;;;;;5.95;1.88;;;17.50;84.70;;;;;;5056341;28;20657;-66
2022/07/16 06:30:58;;;;;;;4.38;1.60;;;17.60;83.90;;;;;;5056631;28;20671;-66
2022/07/16 06:33:24;;;;;;;4.20;1.85;;;17.70;83.70;;;;;;5055682;28;20206;-67
2022/07/16 06:35:51;;;;;;;2.67;1.73;;;17.70;83.50;;;;;;5046035;28;20476;-67
2022/07/16 06:38:18;;;;;;;3.65;1.60;;;17.80;83.00;;;;;;5051731;28;20661;-66
2022/07/16 06:40:45;;;;;;;5.65;1.55;;;17.80;82.90;;;;;;5055401;28;20213;-67
2022/07/16 06:43:12;;;;;;;4.55;1.30;;;17.90;82.60;;;;;;5055144;28;20209;-67
2022/07/16 06:45:39;;;;;;;5.70;1.80;;;17.90;82.50;;;;;;5055390;28;20212;-66
2022/07/16 06:48:07;;;;;;;4.68;1.30;;;18.00;82.50;;;;;;5055446;28;20237;-67
2022/07/16 06:50:34;;;;;;;4.30;1.55;;;18.10;82.30;;;;;;5055652;28;20210;-66
2022/07/16 06:53:01;;;;;;;5.72;1.63;;;18.20;81.90;;;;;;5054467;28;20208;-66
2022/07/16 06:55:28;;;;;;;4.68;1.45;;;18.30;81.40;;;;;;5054788;28;20226;-67
2022/07/16 06:57:54;;;;;;;4.78;1.80;;;18.40;81.20;;;;;;5055261;28;20217;-67
2022/07/16 07:00:21;;;;;;;4.82;1.92;;;18.60;81.20;;;;;;5054968;28;20214;-67
2022/07/16 07:02:48;;;;;;;4.68;2.03;;;18.70;80.60;;;;;;5056444;28;20257;-66
2022/07/16 07:05:16;;;;;;;6.07;1.83;;;18.90;80.10;;;;;;5056431;28;20564;-66
2022/07/16 07:07:44;;;;;;;7.50;1.48;;;18.90;79.70;;;;;;5056048;28;20549;-67
2022/07/16 07:10:11;;;;;;;3.40;1.30;;;19.10;79.60;;;;;;5053464;28;20214;-67
2022/07/16 07:12:37;;;;;;;1.77;1.40;;;19.20;79.50;;;;;;5053799;28;20209;-66
2022/07/16 07:15:05;;;;;;;5.72;1.40;;;19.30;79.70;;;;;;5044516;28;20242;-68
2022/07/16 07:17:32;;;;;;;2.70;0.98;;;19.50;78.20;;;;;;5051979;28;20220;-66
2022/07/16 07:19:59;;;;;;;2.10;1.02;;;19.60;77.40;;;;;;5051872;28;20725;-66
2022/07/16 07:22:28;;;;;;;7.00;1.33;;;19.70;76.70;;;;;;5049239;28;20242;-66
2022/07/16 07:24:54;;;;;;;3.55;2.00;;;19.90;75.80;;;;;;5043679;28;20251;-66
2022/07/16 07:27:22;;;;;;;2.95;1.10;;;20.10;75.40;;;;;;5055902;28;20214;-66
2022/07/16 07:29:49;;;;;;;2.40;1.25;;;20.10;75.00;;;;;;5055271;28;20725;-66
2022/07/16 07:32:15;;;;;;;3.95;1.25;;;20.10;74.40;;;;;;5054791;28;20201;-66
2022/07/16 07:34:42;;;;;;;5.60;1.35;;;20.20;73.80;;;;;;5053099;28;20217;-66
2022/07/16 07:37:10;;;;;;;3.42;1.00;;;20.30;73.60;;;;;;5054547;28;20228;-68
2022/07/16 07:39:39;;;;;;;4.95;1.20;;;20.40;73.40;;;;;;5054383;28;20216;-67
2022/07/16 07:42:05;;;;;;;3.75;1.50;;;20.50;73.20;;;;;;5054067;28;20670;-67
2022/07/16 07:44:32;;;;;;;4.68;1.80;;;20.60;73.20;;;;;;5053996;28;20202;-67
2022/07/16 07:46:59;;;;;;;3.47;1.67;;;20.70;72.80;;;;;;5053920;28;20598;-67
2022/07/16 07:49:26;;;;;;;4.32;1.30;;;20.80;72.50;;;;;;5054440;28;20213;-66
2022/07/16 07:51:54;;;;;;;4.15;1.50;;;20.90;72.30;;;;;;5053370;28;20221;-66
2022/07/16 07:54:21;;;;;;;4.35;1.33;;;21.00;72.20;;;;;;5042405;28;20240;-67
2022/07/16 07:56:49;;;;;;;4.60;1.38;;;21.10;72.30;;;;;;5053669;28;20209;-67
2022/07/16 07:59:16;;;;;;;4.22;1.05;;;21.20;72.70;;;;;;5043657;28;20209;-67
2022/07/16 08:01:44;;;;;;;6.55;1.10;;;21.30;71.40;;;;;;5054006;28;20586;-67
2022/07/16 08:04:10;;;;;;;3.50;1.60;;;21.40;70.80;;;;;;5054558;28;20570;-67
2022/07/16 08:06:37;;;;;;;4.88;1.40;;;21.40;70.10;;;;;;5054258;28;20214;-67
2022/07/16 08:09:04;;;;;;;2.35;1.10;;;21.60;69.50;;;;;;5054349;28;20213;-67
2022/07/16 08:11:31;;;;;;;2.90;1.35;;;21.60;69.40;;;;;;5053330;28;20217;-67
2022/07/16 08:13:59;;;;;;;6.05;1.75;;;21.70;69.20;;;;;;5051553;28;20210;-67
2022/07/16 08:16:27;;;;;;;3.85;1.10;;;21.90;68.90;;;;;;5053739;28;20214;-69
2022/07/16 08:18:54;;;;;;;1.50;1.10;;;21.90;68.90;;;;;;5054479;28;20292;-67
2022/07/16 08:21:21;;;;;;;2.58;0.80;;;22.00;67.40;;;;;;5049952;28;20238;-67
2022/07/16 08:26:32;;;;;;;4.20;0.90;;;22.00;65.80;;;;;;5054593;28;20363;-67
2022/07/16 08:29:00;;;;;;;4.75;1.13;;;22.00;65.20;;;;;;5050756;28;20224;-68
2022/07/16 08:31:27;;;;;;;3.17;0.85;;;22.00;65.20;;;;;;5054887;28;20650;-67
2022/07/16 08:33:54;;;;;;;1.38;0.98;;;22.00;65.10;;;;;;5051063;28;20208;-68
2022/07/16 08:36:21;;;;;;;2.50;1.00;;;22.00;64.90;;;;;;5055208;28;20225;-67
2022/07/16 08:38:48;;;;;;;2.15;1.08;;;22.10;64.90;;;;;;5039743;28;20289;-67
2022/07/16 08:41:16;;;;;;;2.25;1.00;;;22.30;64.80;;;;;;5053721;28;20210;-66
2022/07/16 08:43:43;;;;;;;2.58;0.90;;;22.50;65.00;;;;;;5054152;28;20288;-67
2022/07/16 08:46:12;;;;;;;1.30;0.70;;;22.60;63.30;;;;;;5044966;28;20194;-68
2022/07/16 08:48:39;;;;;;;2.22;1.10;;;22.90;62.90;;;;;;5050434;28;20203;-66
2022/07/16 08:51:10;;;;;;;3.03;0.93;;;23.00;62.40;;;;;;5046617;28;20202;-66
2022/07/16 08:53:37;;;;;;;1.25;0.85;;;23.00;62.30;;;;;;5057882;28;20256;-67
2022/07/16 08:56:05;;;;;;;2.17;0.80;;;23.00;61.90;;;;;;5057972;28;20221;-67
2022/07/16 08:58:32;;;;;;;1.63;1.05;;;23.00;62.00;;;;;;5057570;28;20560;-66
2022/07/16 09:01:00;;;;;;;1.67;1.20;;;23.10;62.00;;;;;;5057310;28;20210;-67
2022/07/16 09:03:28;;;;;;;3.60;1.45;;;23.10;62.40;;;;;;5046261;28;20321;-67
2022/07/16 09:05:55;;;;;;;2.08;1.05;;;23.20;62.60;;;;;;5056572;28;20202;-68
2022/07/16 09:08:22;;;;;;;3.20;1.30;;;23.30;62.80;;;;;;5057172;28;20213;-67
2022/07/16 09:10:49;;;;;;;1.92;0.82;;;23.30;62.60;;;;;;5057299;28;20206;-66
2022/07/16 09:13:16;;;;;;;1.05;0.55;;;23.40;62.30;;;;;;5057890;28;20240;-67
2022/07/16 09:15:44;;;;;;;1.77;0.90;;;23.50;62.50;;;;;;5056545;28;20225;-66
2022/07/16 09:18:17;;;;;;;3.17;1.08;;;23.60;61.10;;;;;;5057433;28;20668;-67
2022/07/16 09:20:48;;;;;;;1.75;0.90;;;23.70;61.40;;;;;;5047554;28;20217;-67
2022/07/16 09:23:20;;;;;;;3.58;1.30;;;23.90;60.70;;;;;;5058073;28;20204;-66
2022/07/16 09:25:49;;;;;;;1.65;1.00;;;24.00;60.30;;;;;;5057358;28;20702;-66
2022/07/16 09:28:16;;;;;;;3.70;0.90;;;24.20;60.80;;;;;;5056832;28;20202;-66
2022/07/16 09:30:43;;;;;;;9.38;1.20;;;24.30;60.50;;;;;;5058184;28;20216;-66
2022/07/16 09:33:15;;;;;;;2.13;1.00;;;24.40;60.60;;;;;;5043929;28;20283;-67
2022/07/16 09:35:42;;;;;;;2.85;1.38;;;24.40;60.60;;;;;;5058389;28;20316;-68
2022/07/16 09:38:10;;;;;;;6.25;1.40;;;24.40;60.60;;;;;;5056990;28;20209;-66
2022/07/16 09:40:39;;;;;;;1.73;1.23;;;24.40;60.10;;;;;;5044518;28;20220;-67
2022/07/16 09:43:18;;;;;;;2.83;0.70;;;24.40;59.60;;;;;;5058608;28;20217;-66
2022/07/16 09:45:47;;;;;;;2.78;1.15;;;24.40;59.90;;;;;;5058188;28;20198;-67
2022/07/16 09:48:21;;;;;;;4.60;1.17;;;24.50;59.30;;;;;;5058297;28;20237;-67
2022/07/16 09:50:48;;;;;;;1.63;1.40;;;24.30;59.30;;;;;;5058497;28;20679;-66
2022/07/16 09:53:18;;;;;;;3.20;1.23;;;24.20;59.60;;;;;;5057034;28;20216;-67
2022/07/16 09:56:03;;;;;;;3.08;1.08;;;24.10;60.00;;;;;;5057823;28;20244;-67
2022/07/16 09:58:30;;;;;;;1.48;1.05;;;24.10;60.00;;;;;;5057871;28;20205;-67
2022/07/16 10:00:58;;;;;;;4.47;1.15;;;24.10;60.30;;;;;;5043184;28;20236;-67
2022/07/16 10:03:26;;;;;;;1.23;0.90;;;24.20;60.40;;;;;;5058137;28;20226;-67
2022/07/16 10:05:53;;;;;;;3.05;1.25;;;24.10;59.70;;;;;;5058414;28;20213;-66
2022/07/16 10:08:22;;;;;;;1.75;1.17;;;24.00;60.10;;;;;;5047088;28;20210;-67
2022/07/16 10:10:49;;;;;;;2.67;0.80;;;24.00;60.10;;;;;;5053442;28;20201;-67
2022/07/16 10:13:17;;;;;;;1.73;1.20;;;24.10;59.80;;;;;;5055983;28;20209;-67
2022/07/16 10:15:46;;;;;;;1.90;1.27;;;24.30;59.50;;;;;;5057557;28;20230;-67
2022/07/16 10:18:34;;;;;;;5.38;1.00;;;24.50;59.30;;;;;;5057759;28;20214;-67
2022/07/16 10:21:06;;;;;;;4.72;1.45;;;24.60;58.40;;;;;;5056981;28;20208;-67
2022/07/16 10:23:35;;;;;;;2.40;1.08;;;24.60;58.00;;;;;;5047111;28;20222;-66
2022/07/16 10:26:06;;;;;;;2.60;1.00;;;24.50;57.80;;;;;;5053335;28;20254;-66
2022/07/16 10:28:47;;;;;;;5.57;1.20;;;24.50;57.80;;;;;;5055567;28;20206;-67
2022/07/16 10:31:37;;;;;;;1.92;1.00;;;24.60;57.70;;;;;;5056565;28;20200;-66
2022/07/16 10:34:34;;;;;;;3.33;1.00;;;24.60;57.60;;;;;;5052864;28;20212;-68
2022/07/16 10:37:02;;;;;;;4.07;1.20;;;24.50;57.40;;;;;;5055469;28;20226;-67
2022/07/16 10:39:30;;;;;;;1.83;0.88;;;24.40;57.40;;;;;;5056412;28;20202;-66
2022/07/16 10:41:59;;;;;;;1.35;1.10;;;24.30;57.50;;;;;;5056844;28;20255;-66
2022/07/16 10:44:42;;;;;;;1.80;1.27;;;24.30;57.80;;;;;;5056285;28;20260;-66
2022/07/16 10:47:09;;;;;;;2.92;1.13;;;24.30;57.60;;;;;;5056440;28;20311;-67
2022/07/16 10:49:37;;;;;;;3.10;0.93;;;24.20;57.60;;;;;;5044700;28;20298;-66
2022/07/16 10:52:05;;;;;;;3.65;0.90;;;24.30;57.90;;;;;;5052450;28;20659;-67
2022/07/16 10:54:35;;;;;;;3.05;0.70;;;24.40;57.70;;;;;;5055713;28;20263;-66
2022/07/16 10:57:03;;;;;;;4.68;0.98;;;24.30;58.00;;;;;;5054516;28;20221;-66
2022/07/16 10:59:32;;;;;;;2.95;1.10;;;24.20;58.20;;;;;;5055159;28;20224;-67
2022/07/16 11:02:01;;;;;;;1.77;1.15;;;24.00;58.00;;;;;;5054441;28;20205;-67
2022/07/16 11:04:37;;;;;;;2.28;0.98;;;23.90;58.20;;;;;;5035406;28;20265;-67
2022/07/16 11:07:07;;;;;;;5.13;1.35;;;23.70;58.70;;;;;;5049635;28;20642;-66
2022/07/16 11:09:37;;;;;;;2.42;1.00;;;23.60;59.10;;;;;;5057003;28;20206;-66
2022/07/16 11:12:14;;;;;;;3.05;1.33;;;23.40;59.30;;;;;;5054384;28;20307;-66
2022/07/16 11:14:42;;;;;;;2.40;1.10;;;23.30;59.70;;;;;;5054898;28;20236;-67
2022/07/16 11:17:09;;;;;;;3.17;1.10;;;23.10;60.10;;;;;;5054199;28;20708;-65
2022/07/16 11:19:38;;;;;;;2.08;1.02;;;22.90;60.40;;;;;;5054373;28;20584;-66
2022/07/16 11:22:05;;;;;;;2.85;1.05;;;22.70;60.70;;;;;;5053494;28;20328;-65
2022/07/16 11:24:32;;;;;;;3.42;1.30;;;22.60;60.90;;;;;;5055646;28;20681;-66
2022/07/16 11:27:02;;;;;;;3.95;1.25;;;22.50;61.30;;;;;;5044381;28;20280;-67
2022/07/16 11:29:30;;;;;;;2.28;1.27;;;22.40;61.40;;;;;;5052250;28;20202;-66
2022/07/16 11:31:58;;;;;;;4.22;1.13;;;22.30;61.70;;;;;;5054288;28;20210;-66
2022/07/16 11:34:26;;;;;;;2.83;1.20;;;22.10;61.90;;;;;;5055463;28;20210;-66
2022/07/16 11:36:55;;;;;;;1.58;1.15;;;22.00;62.40;;;;;;5054595;28;20260;-66
2022/07/16 11:39:23;;;;;;;1.92;1.17;;;21.90;62.50;;;;;;5054861;28;20217;-67
2022/07/16 11:41:51;;;;;;;3.50;1.13;;;21.90;62.90;;;;;;5053641;28;20214;-67
2022/07/16 11:44:22;;;;;;;1.83;1.00;;;21.80;63.00;;;;;;5053741;28;20213;-67
2022/07/16 11:46:50;;;;;;;4.80;1.45;;;21.80;63.40;;;;;;5054116;28;20244;-67
2022/07/16 11:49:25;;;;;;;1.58;1.20;;;21.80;63.90;;;;;;5054446;28;20210;-67
2022/07/16 11:51:55;;;;;;;1.55;1.30;;;21.80;64.00;;;;;;5054656;28;20229;-66
2022/07/16 11:54:22;;;;;;;3.30;1.30;;;21.90;64.20;;;;;;5054424;28;20292;-66
2022/07/16 11:56:50;;;;;;;2.35;1.05;;;21.90;64.30;;;;;;5054331;28;20233;-66
2022/07/16 11:59:24;;;;;;;5.15;0.90;;;22.00;64.30;;;;;;5054338;28;20624;-69
2022/07/16 12:02:00;;;;;;;3.08;1.00;;;22.10;63.90;;;;;;5054291;28;20228;-68
2022/07/16 12:04:35;;;;;;;4.22;1.00;;;22.30;63.90;;;;;;5040886;28;20580;-67
2022/07/16 12:07:02;;;;;;;1.00;0.90;;;22.30;63.60;;;;;;5053520;28;20201;-66
2022/07/16 12:09:31;;;;;;;2.80;1.48;;;22.40;63.60;;;;;;5053977;28;20220;-68
2022/07/16 12:12:05;;;;;;;4.18;1.00;;;22.40;63.40;;;;;;5054162;28;20210;-67
2022/07/16 12:14:47;;;;;;;2.15;1.13;;;22.40;63.50;;;;;;5053969;28;20213;-67
2022/07/16 12:17:26;;;;;;;3.58;1.10;;;22.60;63.70;;;;;;5054017;28;20233;-66
2022/07/16 12:20:14;;;;;;;1.27;1.17;;;22.80;63.10;;;;;;5051215;28;20293;-66
2022/07/16 12:22:52;;;;;;;4.70;1.30;;;23.00;61.90;;;;;;5051076;28;20233;-67
2022/07/16 12:25:35;;;;;;;1.83;1.17;;;23.20;61.90;;;;;;5052354;28;20260;-67
2022/07/16 12:28:04;;;;;;;2.08;1.02;;;23.30;61.10;;;;;;5052315;28;20206;-67
2022/07/16 12:30:36;;;;;;;2.08;1.30;;;23.40;60.50;;;;;;5053857;28;20210;-67
2022/07/16 12:33:04;;;;;;;2.40;1.15;;;23.30;60.40;;;;;;5053210;28;20194;-67
2022/07/16 12:35:48;;;;;;;2.38;1.30;;;23.10;60.30;;;;;;5047212;28;20202;-67
2022/07/16 12:38:41;;;;;;;4.00;1.33;;;22.90;60.80;;;;;;5049293;28;20212;-68
2022/07/16 12:41:11;;;;;;;1.92;1.17;;;22.70;61.50;;;;;;5053080;28;20259;-67
2022/07/16 12:43:39;;;;;;;2.50;1.10;;;22.50;61.60;;;;;;5053244;28;20265;-66
2022/07/16 12:46:08;;;;;;;3.60;1.23;;;22.30;61.90;;;;;;5053760;28;20945;-66
2022/07/16 12:48:41;;;;;;;3.42;1.45;;;22.10;62.40;;;;;;5051221;28;20210;-67
2022/07/16 12:51:09;;;;;;;4.18;1.40;;;22.00;63.00;;;;;;5042534;28;20210;-67
2022/07/16 12:53:36;;;;;;;2.72;1.20;;;21.90;63.40;;;;;;5053121;28;20260;-66
2022/07/16 12:58:50;;;;;;;6.30;1.27;;;21.70;63.90;;;;;;5042351;28;20213;-68
2022/07/16 13:01:19;;;;;;;1.95;1.15;;;21.60;64.20;;;;;;5044652;28;20222;-67
2022/07/16 13:03:46;;;;;;;2.75;1.17;;;21.50;64.60;;;;;;5048736;28;20206;-66
2022/07/16 13:06:14;;;;;;;3.80;1.20;;;21.30;66.50;;;;;;5053283;28;20202;-67
2022/07/16 13:08:41;;;;;;;4.07;1.38;;;21.20;69.60;;;;;;5053659;28;20217;-68